Terminal Aerodrome Forecast
Issued by NWS Cleveland, OH

Home | Current Version | Previous Version | Graphics & Text | Print | Product List | Glossary On
Versions: 1 2 3 4 5 6 7 8 9 10 11 12 13 14 15 16 17 18 19
000
FTUS41 KCLE 181121
TAFCLE
TAF
KCLE 181121Z 1812/1918 24006KT P6SM OVC028
     FM181800 20004KT P6SM SCT035
     FM190000 05009KT P6SM -RA BKN030
     FM190400 03010KT 5SM -RA OVC010
     FM190600 01010G19KT 4SM -RASN OVC006
     FM191000 35014G24KT 4SM -SN OVC007
     FM191300 34015G25KT 6SM -SHSN OVC010=

USA.gov is the U.S. government's official web portal to all federal, state and local government web resources and services.